createdAt,value
2019-06-20T00:02:19.764Z,23.30
2019-06-20T00:04:49.338Z,23.10
2019-06-20T00:07:18.982Z,23.10
2019-06-20T00:09:48.558Z,23.20
2019-06-20T00:12:18.111Z,23.30
2019-06-20T00:14:47.687Z,23.30
2019-06-20T00:17:17.339Z,23.30
2019-06-20T00:19:47.019Z,23.20
2019-06-20T00:22:16.597Z,23.30
2019-06-20T00:24:46.181Z,23.20
2019-06-20T00:27:15.752Z,22.90
2019-06-20T00:29:45.389Z,22.80
2019-06-20T00:32:14.961Z,22.90
2019-06-20T00:34:44.549Z,22.80
2019-06-20T00:37:14.062Z,22.80
2019-06-20T00:39:43.636Z,22.70
2019-06-20T00:42:13.188Z,22.80
2019-06-20T00:44:42.800Z,22.90
2019-06-20T00:47:12.374Z,22.90
2019-06-20T00:49:42.066Z,22.80
2019-06-20T00:52:11.642Z,22.70
2019-06-20T00:54:41.225Z,22.60
2019-06-20T00:57:10.776Z,22.60
2019-06-20T00:59:40.331Z,22.50
2019-06-20T01:02:10.197Z,22.40
2019-06-20T01:04:41.135Z,22.40
2019-06-20T01:10:41.666Z,22.10
2019-06-20T01:13:33.660Z,21.60
2019-06-20T01:16:20.442Z,21.70
2019-06-20T01:18:52.088Z,21.70
2019-06-20T01:21:21.743Z,21.60
2019-06-20T01:23:51.497Z,21.60
2019-06-20T01:26:21.119Z,21.90
2019-06-20T01:28:50.711Z,22.10
2019-06-20T01:31:20.249Z,22.40
2019-06-20T01:33:49.874Z,22.50
2019-06-20T01:36:19.478Z,22.30
2019-06-20T01:38:49.661Z,22.20
2019-06-20T01:41:19.387Z,22.10
2019-06-20T01:43:51.007Z,21.90
2019-06-20T01:46:20.693Z,21.70
2019-06-20T01:48:50.286Z,21.70
2019-06-20T01:51:19.857Z,21.50
2019-06-20T01:53:49.448Z,21.20
2019-06-20T01:56:19.034Z,21.20
2019-06-20T01:58:48.580Z,21.20
2019-06-20T02:01:18.249Z,21.30
2019-06-20T02:03:47.843Z,21.30
2019-06-20T02:06:17.556Z,21.20
2019-06-20T02:08:47.149Z,21.10
2019-06-20T02:11:16.725Z,21.10
2019-06-20T02:13:46.280Z,21.00
2019-06-20T02:16:16.042Z,21.00
2019-06-20T02:18:45.665Z,20.90
2019-06-20T02:21:15.229Z,20.90
2019-06-20T02:23:44.865Z,20.90
2019-06-20T02:26:14.476Z,20.80
2019-06-20T02:28:44.045Z,20.70
2019-06-20T02:31:13.624Z,20.70
2019-06-20T02:33:43.261Z,20.70
2019-06-20T02:36:12.848Z,20.80
2019-06-20T02:38:42.402Z,20.80
2019-06-20T02:41:12.029Z,20.70
2019-06-20T02:43:42.678Z,20.70
2019-06-20T02:46:12.408Z,20.80
2019-06-20T02:48:41.968Z,20.60
2019-06-20T02:51:11.617Z,20.40
2019-06-20T02:53:41.321Z,20.40
2019-06-20T02:56:10.928Z,20.50
2019-06-20T02:58:40.576Z,20.50
2019-06-20T03:01:10.120Z,20.40
2019-06-20T03:03:39.698Z,20.20
2019-06-20T03:06:09.228Z,20.10
2019-06-20T03:08:38.822Z,20.00
2019-06-20T03:11:08.390Z,19.90
2019-06-20T03:13:38.041Z,20.10
2019-06-20T03:16:07.632Z,20.10
2019-06-20T03:18:37.204Z,20.00
2019-06-20T03:21:06.820Z,20.00
2019-06-20T03:23:36.387Z,20.10
2019-06-20T03:26:06.033Z,20.20
2019-06-20T03:28:35.652Z,20.10
2019-06-20T03:31:05.258Z,20.10
2019-06-20T03:33:34.909Z,20.20
2019-06-20T03:36:04.601Z,20.40
2019-06-20T03:38:34.151Z,20.40
2019-06-20T03:41:03.771Z,20.30
2019-06-20T03:43:33.402Z,20.30
2019-06-20T03:46:03.165Z,20.40
2019-06-20T03:48:32.778Z,20.30
2019-06-20T03:51:02.401Z,20.40
2019-06-20T03:53:32.040Z,20.30
2019-06-20T03:56:01.709Z,20.40
2019-06-20T03:58:31.284Z,20.40
2019-06-20T04:01:00.933Z,20.20
2019-06-20T04:03:30.561Z,20.00
2019-06-20T04:06:00.272Z,20.10
2019-06-20T04:13:07.356Z,20.20
2019-06-20T04:19:13.079Z,20.00
2019-06-20T04:21:44.430Z,20.00
2019-06-20T04:24:14.028Z,20.50
2019-06-20T04:26:43.664Z,20.70
2019-06-20T04:29:13.354Z,21.00
2019-06-20T04:31:43.084Z,21.00
2019-06-20T04:34:12.757Z,21.20
2019-06-20T04:39:33.053Z,21.50
2019-06-20T04:45:35.497Z,21.50
2019-06-20T04:48:45.008Z,21.60
2019-06-20T04:51:37.044Z,21.80
2019-06-20T04:54:34.214Z,22.00
2019-06-20T04:57:19.564Z,22.00
2019-06-20T05:00:24.951Z,22.10
2019-06-20T05:03:11.654Z,22.10
2019-06-20T05:05:54.818Z,22.20
2019-06-20T05:08:35.663Z,22.20
2019-06-20T05:11:39.037Z,22.30
2019-06-20T05:14:14.617Z,22.30
2019-06-20T05:16:55.058Z,22.30
2019-06-20T05:22:19.573Z,22.70
2019-06-20T05:24:49.272Z,23.00
2019-06-20T05:27:19.020Z,23.00
2019-06-20T05:29:48.887Z,23.10
2019-06-20T05:32:18.594Z,23.20
2019-06-20T05:34:48.477Z,23.60
2019-06-20T05:37:21.746Z,23.80
2019-06-20T05:43:09.271Z,23.60
2019-06-20T05:46:11.238Z,23.60
2019-06-20T05:48:48.293Z,23.70
2019-06-20T05:51:18.072Z,23.80
2019-06-20T05:53:47.708Z,24.00
2019-06-20T05:56:17.365Z,24.20
2019-06-20T05:58:46.945Z,24.20
2019-06-20T06:01:31.422Z,24.30
2019-06-20T06:04:40.308Z,24.50
2019-06-20T06:07:14.154Z,24.70
2019-06-20T06:09:46.576Z,24.90
2019-06-20T06:12:16.430Z,24.80
2019-06-20T06:14:46.179Z,24.70
2019-06-20T06:17:16.197Z,24.60
2019-06-20T06:19:45.914Z,24.60
2019-06-20T06:25:22.491Z,24.40
2019-06-20T06:28:25.256Z,24.50
2019-06-20T06:31:11.243Z,24.40
2019-06-20T06:33:43.846Z,24.30
2019-06-20T06:36:19.387Z,24.30
2019-06-20T06:39:06.774Z,24.30
2019-06-20T06:41:37.678Z,24.20
2019-06-20T06:44:08.485Z,24.00
2019-06-20T06:46:44.885Z,23.60
2019-06-20T06:49:09.585Z,23.10
2019-06-20T06:51:39.184Z,22.70
2019-06-20T06:54:08.774Z,22.50
2019-06-20T06:56:38.513Z,22.20
2019-06-20T06:59:08.056Z,22.10
2019-06-20T07:01:37.588Z,22.00
2019-06-20T07:04:07.124Z,21.80
2019-06-20T07:06:36.662Z,21.60
2019-06-20T07:09:08.309Z,21.50
2019-06-20T07:11:37.999Z,21.40
2019-06-20T07:14:07.792Z,21.40
2019-06-20T07:16:37.326Z,21.40
2019-06-20T07:19:06.901Z,21.20
2019-06-20T07:21:36.541Z,21.40
2019-06-20T07:24:07.320Z,21.60
2019-06-20T07:26:36.929Z,21.60
2019-06-20T07:29:06.467Z,21.70
2019-06-20T07:31:36.061Z,21.80
2019-06-20T07:34:05.724Z,21.80
2019-06-20T07:36:36.321Z,21.80
2019-06-20T07:39:09.981Z,21.80
2019-06-20T07:41:41.325Z,21.70
2019-06-20T07:44:11.171Z,21.80
2019-06-20T07:46:43.612Z,22.10
2019-06-20T07:49:13.259Z,22.20
2019-06-20T07:51:42.838Z,22.30
2019-06-20T07:54:12.549Z,22.30
2019-06-20T07:56:43.508Z,22.10
2019-06-20T07:59:18.603Z,22.20
2019-06-20T08:01:51.410Z,22.10
2019-06-20T08:07:31.883Z,22.20
2019-06-20T08:10:04.394Z,21.80
2019-06-20T08:12:48.032Z,21.70
2019-06-20T08:15:20.260Z,21.80
2019-06-20T08:17:54.787Z,21.90
2019-06-20T08:20:25.472Z,21.90
2019-06-20T08:23:01.525Z,21.70
2019-06-20T08:30:00.987Z,21.70
2019-06-20T08:39:56.773Z,21.90
2019-06-20T08:46:13.310Z,22.10
2019-06-20T08:49:01.522Z,22.50
2019-06-20T08:51:37.749Z,22.80
2019-06-20T08:54:26.920Z,23.00
2019-06-20T08:57:33.453Z,23.00
2019-06-20T09:00:09.549Z,22.90
2019-06-20T09:03:00.464Z,23.00
2019-06-20T09:05:33.970Z,23.50
2019-06-20T09:08:39.940Z,23.50
2019-06-20T09:10:57.620Z,23.50
2019-06-20T09:13:28.293Z,23.70
2019-06-20T09:15:58.801Z,24.10
2019-06-20T09:18:28.641Z,23.70
2019-06-20T09:20:58.254Z,23.90
2019-06-20T09:23:27.948Z,23.80
2019-06-20T09:25:58.025Z,23.80
2019-06-20T09:28:38.110Z,23.70
2019-06-20T09:31:32.451Z,23.60
2019-06-20T09:34:05.793Z,23.50
2019-06-20T09:36:42.958Z,23.40
2019-06-20T09:39:13.062Z,23.20
2019-06-20T09:42:03.899Z,23.00
2019-06-20T09:44:40.114Z,22.90
2019-06-20T09:47:29.774Z,23.00
2019-06-20T09:50:01.095Z,23.10
2019-06-20T09:52:30.824Z,23.30
2019-06-20T09:55:00.419Z,23.30
2019-06-20T09:57:30.030Z,23.30
2019-06-20T10:00:09.714Z,23.50
2019-06-20T10:02:30.985Z,23.80
2019-06-20T10:05:00.595Z,24.10
2019-06-20T10:07:31.367Z,23.90
2019-06-20T10:10:02.411Z,23.90
2019-06-20T10:12:32.492Z,23.80
2019-06-20T10:15:05.189Z,23.80
2019-06-20T10:17:41.505Z,23.80
2019-06-20T10:20:13.094Z,24.00
2019-06-20T10:22:45.848Z,23.90
2019-06-20T10:25:17.257Z,24.10
2019-06-20T10:27:48.303Z,24.50
2019-06-20T10:30:19.407Z,24.20
2019-06-20T10:32:49.391Z,24.40
2019-06-20T10:35:19.733Z,25.00
2019-06-20T10:37:50.340Z,24.90
2019-06-20T10:40:20.698Z,24.90
2019-06-20T10:42:50.355Z,25.20
2019-06-20T10:45:21.043Z,25.40
2019-06-20T10:47:51.094Z,25.70
2019-06-20T10:50:21.661Z,25.50
2019-06-20T10:52:51.859Z,25.70
2019-06-20T10:55:21.718Z,26.20
2019-06-20T10:57:52.021Z,26.20
2019-06-20T11:00:31.278Z,26.20
2019-06-20T11:02:55.863Z,26.30
2019-06-20T11:05:27.281Z,26.50
2019-06-20T11:07:57.926Z,26.30
2019-06-20T11:10:28.299Z,26.40
2019-06-20T11:12:57.887Z,26.50
2019-06-20T11:15:29.187Z,26.60
2019-06-20T11:17:58.853Z,26.70
2019-06-20T11:20:28.414Z,26.60
2019-06-20T11:22:57.993Z,26.60
2019-06-20T11:25:27.693Z,26.90
2019-06-20T11:27:57.267Z,27.20
2019-06-20T11:30:28.763Z,27.50
2019-06-20T11:32:58.323Z,27.80
2019-06-20T11:35:27.921Z,27.90
2019-06-20T11:37:57.486Z,28.10
2019-06-20T11:40:27.429Z,28.20
2019-06-20T11:42:57.318Z,28.30
2019-06-20T11:45:27.070Z,27.70
2019-06-20T11:47:56.708Z,27.80
2019-06-20T11:50:26.447Z,28.00
2019-06-20T11:52:56.147Z,28.80
2019-06-20T11:55:25.821Z,29.00
2019-06-20T11:57:55.469Z,29.00
2019-06-20T12:00:26.282Z,28.90
2019-06-20T12:02:55.853Z,28.90
2019-06-20T12:05:25.535Z,28.40
2019-06-20T12:07:55.136Z,28.20
2019-06-20T12:10:25.439Z,28.20
2019-06-20T12:12:55.552Z,28.40
2019-06-20T12:15:25.166Z,28.40
2019-06-20T12:17:54.763Z,28.10
2019-06-20T12:20:24.560Z,27.60
2019-06-20T12:22:54.663Z,27.60
2019-06-20T12:25:24.437Z,28.00
2019-06-20T12:27:54.008Z,27.90
2019-06-20T12:30:24.161Z,28.10
2019-06-20T12:32:53.772Z,28.00
2019-06-20T12:35:23.353Z,27.90
2019-06-20T12:37:53.032Z,28.10
2019-06-20T12:40:23.171Z,28.20
2019-06-20T12:42:52.739Z,28.90
2019-06-20T12:45:22.562Z,29.30
2019-06-20T12:47:52.230Z,29.10
2019-06-20T12:50:21.989Z,29.20
2019-06-20T12:52:51.563Z,30.00
2019-06-20T12:55:21.332Z,29.50
2019-06-20T12:57:52.654Z,28.70
2019-06-20T13:00:23.252Z,28.60
2019-06-20T13:02:53.005Z,29.20
2019-06-20T13:05:24.683Z,29.40
2019-06-20T13:07:54.372Z,29.00
2019-06-20T13:10:24.649Z,28.70
2019-06-20T13:12:54.183Z,28.30
2019-06-20T13:15:23.902Z,28.30
2019-06-20T13:17:53.533Z,28.60
2019-06-20T13:20:23.450Z,28.70
2019-06-20T13:22:54.045Z,29.30
2019-06-20T13:25:23.789Z,30.10
2019-06-20T13:27:53.359Z,30.00
2019-06-20T13:30:22.980Z,30.30
2019-06-20T13:32:52.646Z,29.90
2019-06-20T13:35:22.479Z,30.30
2019-06-20T13:37:52.091Z,30.20
2019-06-20T13:40:21.964Z,29.80
2019-06-20T13:42:54.442Z,29.30
2019-06-20T13:45:23.820Z,29.30
2019-06-20T13:47:53.737Z,29.20
2019-06-20T13:50:24.516Z,29.10
2019-06-20T13:52:54.446Z,29.40
2019-06-20T13:55:24.349Z,28.60
2019-06-20T13:57:54.156Z,28.40
2019-06-20T14:00:24.676Z,27.70
2019-06-20T14:02:54.423Z,27.60
2019-06-20T14:05:24.164Z,27.70
2019-06-20T14:07:55.877Z,27.30
2019-06-20T14:10:25.229Z,27.20
2019-06-20T14:12:54.834Z,27.10
2019-06-20T14:15:24.649Z,27.40
2019-06-20T14:17:54.269Z,27.40
2019-06-20T14:20:25.504Z,27.40
2019-06-20T14:22:56.556Z,27.00
2019-06-20T14:25:26.342Z,26.80
2019-06-20T14:27:55.986Z,26.80
2019-06-20T14:30:26.141Z,26.60
2019-06-20T14:32:56.039Z,26.20
2019-06-20T14:35:25.904Z,25.90
2019-06-20T14:37:55.714Z,25.80
2019-06-20T14:40:25.606Z,25.70
2019-06-20T14:42:55.312Z,25.70
2019-06-20T14:45:25.215Z,25.70
2019-06-20T14:47:55.307Z,25.70
2019-06-20T14:50:25.156Z,25.40
2019-06-20T14:52:55.726Z,25.30
2019-06-20T14:55:26.000Z,25.30
2019-06-20T14:57:55.994Z,25.10
2019-06-20T15:00:27.394Z,25.10
2019-06-20T15:02:58.731Z,25.00
2019-06-20T15:05:30.451Z,25.20
2019-06-20T15:08:00.770Z,25.10
2019-06-20T15:10:30.492Z,24.90
2019-06-20T15:13:01.669Z,25.10
2019-06-20T15:15:31.712Z,25.10
2019-06-20T15:18:01.375Z,24.90
2019-06-20T15:20:30.984Z,25.30
2019-06-20T15:23:00.757Z,26.30
2019-06-20T15:25:30.458Z,27.40
2019-06-20T15:28:00.153Z,28.00
2019-06-20T15:30:29.716Z,28.60
2019-06-20T15:33:09.705Z,28.80
2019-06-20T15:35:30.602Z,29.60
2019-06-20T15:38:00.268Z,30.10
2019-06-20T15:40:29.882Z,30.70
2019-06-20T15:42:59.449Z,31.20
2019-06-20T15:45:29.045Z,31.50
2019-06-20T15:47:58.651Z,32.00
2019-06-20T15:50:28.237Z,32.00
2019-06-20T15:52:57.885Z,31.30
2019-06-20T15:55:27.500Z,31.70
2019-06-20T15:57:57.131Z,32.00
2019-06-20T16:00:26.770Z,31.80
2019-06-20T16:03:08.789Z,31.90
2019-06-20T16:05:27.662Z,31.40
2019-06-20T16:07:57.337Z,30.80
2019-06-20T16:10:26.914Z,31.00
2019-06-20T16:12:56.546Z,31.60
2019-06-20T16:15:26.163Z,32.20
2019-06-20T16:17:55.794Z,31.30
2019-06-20T16:20:25.389Z,30.80
2019-06-20T16:22:54.974Z,30.90
2019-06-20T16:25:24.558Z,30.60
2019-06-20T16:27:54.132Z,31.50
2019-06-20T16:30:23.860Z,30.90
2019-06-20T16:32:53.605Z,30.90
2019-06-20T16:35:24.181Z,30.90
2019-06-20T16:37:53.804Z,31.20
2019-06-20T16:40:39.955Z,30.50
2019-06-20T16:43:09.729Z,30.70
2019-06-20T16:45:41.206Z,31.40
2019-06-20T16:48:12.008Z,31.30
2019-06-20T16:50:41.958Z,31.30
2019-06-20T16:53:11.614Z,30.30
2019-06-20T16:55:41.226Z,29.70
2019-06-20T16:58:10.808Z,28.90
2019-06-20T17:00:40.606Z,28.70
2019-06-20T17:03:10.219Z,28.70
2019-06-20T17:05:41.178Z,28.90
2019-06-20T17:08:10.861Z,28.70
2019-06-20T17:10:40.678Z,28.60
2019-06-20T17:13:10.285Z,27.50
2019-06-20T17:15:39.922Z,27.40
2019-06-20T17:18:09.447Z,27.40
2019-06-20T17:20:39.081Z,27.10
2019-06-20T17:23:09.585Z,26.90
2019-06-20T17:25:40.360Z,26.80
2019-06-20T17:28:10.169Z,26.60
2019-06-20T17:30:39.939Z,26.60
2019-06-20T17:33:28.492Z,26.70
2019-06-20T17:36:29.714Z,26.80
2019-06-20T17:38:59.995Z,26.70
2019-06-20T17:41:25.030Z,26.70
2019-06-20T17:50:13.511Z,27.50
2019-06-20T17:52:54.920Z,27.40
2019-06-20T17:55:29.059Z,27.10
2019-06-20T18:02:42.406Z,26.60
2019-06-20T18:05:25.659Z,26.90
2019-06-20T18:08:14.702Z,26.90
2019-06-20T18:10:33.629Z,26.80
2019-06-20T18:13:24.855Z,26.80
2019-06-20T18:15:53.172Z,26.60
2019-06-20T18:18:29.531Z,26.60
2019-06-20T18:21:03.328Z,26.60
2019-06-20T18:24:09.805Z,26.70
2019-06-20T18:27:08.767Z,26.70
2019-06-20T18:30:19.421Z,26.70
2019-06-20T18:36:13.703Z,26.50
2019-06-20T18:38:54.300Z,26.30
2019-06-20T18:42:51.696Z,25.70
2019-06-20T18:44:37.621Z,25.70
2019-06-20T18:47:36.099Z,25.30
2019-06-20T18:50:06.224Z,25.60
2019-06-20T18:52:52.173Z,25.70
2019-06-20T18:55:23.276Z,25.70
2019-06-20T18:57:59.582Z,25.70
2019-06-20T19:00:35.039Z,25.70
2019-06-20T19:03:11.582Z,25.60
2019-06-20T19:05:41.364Z,25.30
2019-06-20T19:08:13.804Z,25.20
2019-06-20T19:10:45.564Z,25.20
2019-06-20T19:13:15.528Z,25.10
2019-06-20T19:15:53.989Z,25.10
2019-06-20T19:18:25.318Z,24.80
2019-06-20T19:21:03.949Z,24.70
2019-06-20T19:23:38.348Z,24.80
2019-06-20T19:26:08.149Z,24.80
2019-06-20T19:28:37.930Z,24.80
2019-06-20T19:31:08.043Z,24.90
2019-06-20T19:33:37.838Z,24.90
2019-06-20T19:36:07.512Z,24.90
2019-06-20T19:38:37.101Z,24.80
2019-06-20T19:41:06.658Z,24.60
2019-06-20T19:43:36.199Z,24.40
2019-06-20T19:46:06.012Z,24.30
2019-06-20T19:48:36.887Z,24.20
2019-06-20T19:51:06.834Z,23.90
2019-06-20T19:53:36.593Z,23.60
2019-06-20T19:56:06.301Z,23.50
2019-06-20T19:58:35.967Z,23.40
2019-06-20T20:01:05.725Z,23.50
2019-06-20T20:03:35.385Z,23.40
2019-06-20T20:06:05.254Z,23.20
2019-06-20T20:08:35.123Z,22.70
2019-06-20T20:11:04.753Z,22.40
2019-06-20T20:13:34.451Z,22.40
2019-06-20T20:16:04.197Z,22.30
2019-06-20T20:18:33.930Z,22.30
2019-06-20T20:21:03.622Z,22.10
2019-06-20T20:23:33.514Z,22.10
2019-06-20T20:26:03.554Z,22.00
2019-06-20T20:28:33.427Z,22.00
2019-06-20T20:31:03.378Z,22.10
2019-06-20T20:33:33.341Z,22.20
2019-06-20T20:36:03.322Z,22.20
2019-06-20T20:38:33.262Z,22.20
2019-06-20T20:41:03.097Z,22.20
2019-06-20T20:43:32.861Z,22.10
2019-06-20T20:46:02.821Z,22.10
2019-06-20T20:48:33.114Z,22.00
2019-06-20T20:51:02.969Z,21.90
2019-06-20T20:53:33.094Z,21.60
2019-06-20T20:56:02.918Z,21.70
2019-06-20T20:58:32.833Z,21.70
2019-06-20T21:01:15.621Z,21.70
2019-06-20T21:03:45.562Z,21.70
2019-06-20T21:06:15.340Z,21.60
2019-06-20T21:08:45.043Z,21.70
2019-06-20T21:11:14.932Z,21.80
2019-06-20T21:13:44.801Z,21.70
2019-06-20T21:16:14.642Z,21.70
2019-06-20T21:18:45.556Z,21.70
2019-06-20T21:21:15.529Z,21.70
2019-06-20T21:23:45.479Z,21.60
2019-06-20T21:26:15.600Z,21.50
2019-06-20T21:28:45.649Z,21.10
2019-06-20T21:31:15.706Z,21.30
2019-06-20T21:33:45.599Z,21.30
2019-06-20T21:36:15.484Z,21.30
2019-06-20T21:38:46.269Z,21.40
2019-06-20T21:41:16.201Z,21.20
2019-06-20T21:43:45.833Z,21.00
2019-06-20T21:46:15.385Z,21.10
2019-06-20T21:48:45.941Z,21.20
2019-06-20T21:51:15.508Z,21.30
2019-06-20T21:53:45.180Z,21.20
2019-06-20T21:56:14.697Z,21.30
2019-06-20T21:58:44.296Z,21.30
2019-06-20T22:01:14.653Z,21.30
2019-06-20T22:03:44.749Z,21.30
2019-06-20T22:06:23.197Z,21.30
2019-06-20T22:08:45.543Z,21.30
2019-06-20T22:11:15.159Z,21.30
2019-06-20T22:13:46.617Z,21.20
2019-06-20T22:16:16.235Z,20.90
2019-06-20T22:18:45.960Z,21.00
2019-06-20T22:21:15.514Z,21.10
2019-06-20T22:23:45.089Z,21.20
2019-06-20T22:26:14.645Z,21.20
2019-06-20T22:28:44.184Z,21.20
2019-06-20T22:31:13.745Z,21.20
2019-06-20T22:33:43.389Z,21.20
2019-06-20T22:36:13.013Z,21.20
2019-06-20T22:38:42.569Z,21.10
2019-06-20T22:41:12.133Z,21.10
2019-06-20T22:43:41.735Z,21.10
2019-06-20T22:46:11.313Z,21.10
2019-06-20T22:48:41.119Z,21.20
2019-06-20T22:51:13.687Z,21.10
2019-06-20T22:53:41.996Z,21.10
2019-06-20T22:56:11.641Z,21.20
2019-06-20T22:58:41.249Z,21.20
2019-06-20T23:01:10.830Z,21.10
2019-06-20T23:03:40.372Z,21.00
2019-06-20T23:06:09.946Z,20.90
2019-06-20T23:08:39.517Z,21.10
2019-06-20T23:11:09.098Z,21.20
2019-06-20T23:13:38.670Z,21.20
2019-06-20T23:16:08.316Z,21.10
2019-06-20T23:18:37.982Z,21.10
2019-06-20T23:21:07.526Z,20.70
2019-06-20T23:23:37.098Z,20.60
2019-06-20T23:26:08.462Z,20.70
2019-06-20T23:28:38.089Z,20.80
2019-06-20T23:31:07.664Z,20.80
2019-06-20T23:33:37.332Z,20.80
2019-06-20T23:36:06.975Z,20.80
2019-06-20T23:38:36.516Z,20.90
2019-06-20T23:41:06.216Z,21.10
2019-06-20T23:43:35.786Z,21.10
2019-06-20T23:46:06.318Z,21.00
2019-06-20T23:48:35.901Z,21.00
2019-06-20T23:51:05.443Z,20.90
2019-06-20T23:53:35.023Z,20.60
2019-06-20T23:56:07.914Z,20.60
2019-06-20T23:58:35.949Z,20.50
